sensor_id;sensor_type;location;lat;lon;timestamp;pressure;altitude;pressure_sealevel;temperature;humidity
21096;BME280;10706;49.036;12.112;2023-04-20T00:00:31;97735.78;;;2.30;91.44
21096;BME280;10706;49.036;12.112;2023-04-20T00:02:56;97729.88;;;2.28;91.72
21096;BME280;10706;49.036;12.112;2023-04-20T00:05:23;97727.63;;;2.25;93.91
21096;BME280;10706;49.036;12.112;2023-04-20T00:07:48;97733.88;;;2.09;92.68
21096;BME280;10706;49.036;12.112;2023-04-20T00:10:15;97724.25;;;2.02;93.06
21096;BME280;10706;49.036;12.112;2023-04-20T00:12:43;97727.00;;;1.93;94.26
21096;BME280;10706;49.036;12.112;2023-04-20T00:15:09;97713.81;;;1.79;93.49
21096;BME280;10706;49.036;12.112;2023-04-20T00:17:36;97715.69;;;1.70;95.88
21096;BME280;10706;49.036;12.112;2023-04-20T00:20:04;97706.38;;;1.82;95.27
21096;BME280;10706;49.036;12.112;2023-04-20T00:22:30;97705.19;;;2.00;96.47
21096;BME280;10706;49.036;12.112;2023-04-20T00:24:56;97703.19;;;2.02;94.96
21096;BME280;10706;49.036;12.112;2023-04-20T00:27:22;97703.47;;;2.22;94.94
21096;BME280;10706;49.036;12.112;2023-04-20T00:29:47;97699.19;;;2.21;95.16
21096;BME280;10706;49.036;12.112;2023-04-20T00:32:13;97697.47;;;2.28;93.90
21096;BME280;10706;49.036;12.112;2023-04-20T00:34:39;97688.66;;;2.21;93.56
21096;BME280;10706;49.036;12.112;2023-04-20T00:37:04;97686.38;;;2.32;94.09
21096;BME280;10706;49.036;12.112;2023-04-20T00:39:30;97684.19;;;2.21;92.84
21096;BME280;10706;49.036;12.112;2023-04-20T00:42:04;97678.31;;;2.19;94.26
21096;BME280;10706;49.036;12.112;2023-04-20T00:44:31;97679.69;;;2.15;94.57
21096;BME280;10706;49.036;12.112;2023-04-20T00:46:56;97672.94;;;2.27;94.60
21096;BME280;10706;49.036;12.112;2023-04-20T00:49:25;97665.25;;;2.11;94.10
21096;BME280;10706;49.036;12.112;2023-04-20T00:51:53;97673.50;;;2.08;93.67
21096;BME280;10706;49.036;12.112;2023-04-20T00:54:19;97682.03;;;2.10;94.50
21096;BME280;10706;49.036;12.112;2023-04-20T00:56:44;97669.41;;;2.05;93.53
21096;BME280;10706;49.036;12.112;2023-04-20T00:59:11;97668.41;;;2.06;94.01
21096;BME280;10706;49.036;12.112;2023-04-20T01:01:37;97665.06;;;1.98;93.51
21096;BME280;10706;49.036;12.112;2023-04-20T01:04:03;97667.41;;;1.92;93.84
21096;BME280;10706;49.036;12.112;2023-04-20T01:06:28;97666.69;;;1.99;94.54
21096;BME280;10706;49.036;12.112;2023-04-20T01:08:55;97656.25;;;2.05;94.70
21096;BME280;10706;49.036;12.112;2023-04-20T01:11:20;97658.34;;;1.95;94.20
21096;BME280;10706;49.036;12.112;2023-04-20T01:13:46;97654.88;;;1.94;94.77
21096;BME280;10706;49.036;12.112;2023-04-20T01:16:12;97656.53;;;1.96;95.49
21096;BME280;10706;49.036;12.112;2023-04-20T01:18:47;97656.63;;;1.87;95.22
21096;BME280;10706;49.036;12.112;2023-04-20T01:21:17;97657.81;;;1.85;95.23
21096;BME280;10706;49.036;12.112;2023-04-20T01:23:44;97644.91;;;1.75;95.57
21096;BME280;10706;49.036;12.112;2023-04-20T01:26:14;97638.63;;;1.76;96.31
21096;BME280;10706;49.036;12.112;2023-04-20T01:28:40;97648.34;;;1.75;96.45
21096;BME280;10706;49.036;12.112;2023-04-20T01:31:07;97645.84;;;1.82;95.55
21096;BME280;10706;49.036;12.112;2023-04-20T01:33:34;97639.47;;;1.77;95.63
21096;BME280;10706;49.036;12.112;2023-04-20T01:36:00;97639.66;;;1.75;96.11
21096;BME280;10706;49.036;12.112;2023-04-20T01:38:25;97643.81;;;1.69;96.66
21096;BME280;10706;49.036;12.112;2023-04-20T01:40:53;97647.81;;;1.80;96.08
21096;BME280;10706;49.036;12.112;2023-04-20T01:43:21;97641.38;;;1.83;96.50
21096;BME280;10706;49.036;12.112;2023-04-20T01:45:47;97643.19;;;1.97;96.64
21096;BME280;10706;49.036;12.112;2023-04-20T01:48:13;97633.53;;;2.19;95.79
21096;BME280;10706;49.036;12.112;2023-04-20T01:50:39;97636.25;;;2.26;94.59
21096;BME280;10706;49.036;12.112;2023-04-20T01:53:04;97627.13;;;2.43;93.93
21096;BME280;10706;49.036;12.112;2023-04-20T01:55:30;97628.75;;;2.44;92.63
21096;BME280;10706;49.036;12.112;2023-04-20T01:57:56;97630.84;;;2.49;93.14
21096;BME280;10706;49.036;12.112;2023-04-20T02:00:23;97632.16;;;2.60;92.92
21096;BME280;10706;49.036;12.112;2023-04-20T02:02:49;97622.75;;;2.50;93.10
21096;BME280;10706;49.036;12.112;2023-04-20T02:05:15;97628.06;;;2.57;92.18
21096;BME280;10706;49.036;12.112;2023-04-20T02:07:41;97621.25;;;2.63;91.69
21096;BME280;10706;49.036;12.112;2023-04-20T02:10:07;97621.31;;;2.69;92.11
21096;BME280;10706;49.036;12.112;2023-04-20T02:12:32;97620.59;;;2.61;92.06
21096;BME280;10706;49.036;12.112;2023-04-20T02:14:58;97618.19;;;2.59;92.61
21096;BME280;10706;49.036;12.112;2023-04-20T02:17:24;97622.06;;;2.63;92.17
21096;BME280;10706;49.036;12.112;2023-04-20T02:19:49;97616.09;;;2.55;93.69
21096;BME280;10706;49.036;12.112;2023-04-20T02:22:15;97618.81;;;2.61;92.35
21096;BME280;10706;49.036;12.112;2023-04-20T02:24:41;97615.69;;;2.72;91.73
21096;BME280;10706;49.036;12.112;2023-04-20T02:27:09;97615.34;;;2.61;91.79
21096;BME280;10706;49.036;12.112;2023-04-20T02:29:35;97619.56;;;2.77;91.96
21096;BME280;10706;49.036;12.112;2023-04-20T02:32:00;97617.75;;;2.56;91.68
21096;BME280;10706;49.036;12.112;2023-04-20T02:34:26;97617.16;;;2.60;91.56
21096;BME280;10706;49.036;12.112;2023-04-20T02:36:52;97624.09;;;2.61;91.70
21096;BME280;10706;49.036;12.112;2023-04-20T02:39:18;97613.66;;;2.75;90.57
21096;BME280;10706;49.036;12.112;2023-04-20T02:41:44;97617.69;;;2.70;92.02
21096;BME280;10706;49.036;12.112;2023-04-20T02:44:10;97611.13;;;2.66;91.90
21096;BME280;10706;49.036;12.112;2023-04-20T02:46:36;97608.63;;;2.58;91.50
21096;BME280;10706;49.036;12.112;2023-04-20T02:49:01;97610.50;;;2.64;90.89
21096;BME280;10706;49.036;12.112;2023-04-20T02:51:28;97605.63;;;2.61;91.58
21096;BME280;10706;49.036;12.112;2023-04-20T02:53:54;97599.34;;;2.62;91.66
21096;BME280;10706;49.036;12.112;2023-04-20T02:56:20;97605.25;;;2.64;91.62
21096;BME280;10706;49.036;12.112;2023-04-20T02:58:46;97612.69;;;2.61;93.06
21096;BME280;10706;49.036;12.112;2023-04-20T03:01:13;97613.28;;;2.78;90.90
21096;BME280;10706;49.036;12.112;2023-04-20T03:03:39;97610.31;;;2.66;91.21
21096;BME280;10706;49.036;12.112;2023-04-20T03:06:05;97611.03;;;2.75;92.70
21096;BME280;10706;49.036;12.112;2023-04-20T03:08:31;97617.28;;;2.73;91.78
21096;BME280;10706;49.036;12.112;2023-04-20T03:10:57;97609.06;;;2.83;91.37
21096;BME280;10706;49.036;12.112;2023-04-20T03:13:22;97612.13;;;2.87;91.87
21096;BME280;10706;49.036;12.112;2023-04-20T03:15:48;97606.94;;;2.94;90.24
21096;BME280;10706;49.036;12.112;2023-04-20T03:18:14;97604.63;;;2.84;91.91
21096;BME280;10706;49.036;12.112;2023-04-20T03:20:39;97610.13;;;2.89;90.33
21096;BME280;10706;49.036;12.112;2023-04-20T03:23:05;97609.28;;;2.82;89.80
21096;BME280;10706;49.036;12.112;2023-04-20T03:25:31;97604.06;;;2.88;90.23
21096;BME280;10706;49.036;12.112;2023-04-20T03:27:58;97601.03;;;2.70;90.51
21096;BME280;10706;49.036;12.112;2023-04-20T03:30:24;97605.88;;;2.66;91.83
21096;BME280;10706;49.036;12.112;2023-04-20T03:32:49;97610.41;;;2.72;91.54
21096;BME280;10706;49.036;12.112;2023-04-20T03:35:15;97608.41;;;2.75;92.38
21096;BME280;10706;49.036;12.112;2023-04-20T03:37:42;97606.00;;;2.80;91.17
21096;BME280;10706;49.036;12.112;2023-04-20T03:40:08;97603.22;;;2.66;91.31
21096;BME280;10706;49.036;12.112;2023-04-20T03:42:34;97596.34;;;2.65;92.37
21096;BME280;10706;49.036;12.112;2023-04-20T03:45:02;97604.44;;;2.64;90.28
21096;BME280;10706;49.036;12.112;2023-04-20T03:47:27;97599.16;;;2.64;90.81
21096;BME280;10706;49.036;12.112;2023-04-20T03:49:53;97602.59;;;2.64;92.11
21096;BME280;10706;49.036;12.112;2023-04-20T03:52:19;97601.16;;;2.62;91.25
21096;BME280;10706;49.036;12.112;2023-04-20T03:54:45;97594.50;;;2.66;92.12
21096;BME280;10706;49.036;12.112;2023-04-20T03:57:10;97597.59;;;2.69;92.80
21096;BME280;10706;49.036;12.112;2023-04-20T03:59:36;97599.34;;;2.62;92.44
21096;BME280;10706;49.036;12.112;2023-04-20T04:02:02;97603.88;;;2.68;92.09
21096;BME280;10706;49.036;12.112;2023-04-20T04:04:30;97601.34;;;2.60;92.49
21096;BME280;10706;49.036;12.112;2023-04-20T04:06:56;97591.00;;;2.59;92.25
21096;BME280;10706;49.036;12.112;2023-04-20T04:09:22;97588.69;;;2.70;90.66
21096;BME280;10706;49.036;12.112;2023-04-20T04:11:50;97596.03;;;2.53;91.84
21096;BME280;10706;49.036;12.112;2023-04-20T04:14:15;97598.09;;;2.58;91.80
21096;BME280;10706;49.036;12.112;2023-04-20T04:16:41;97592.31;;;2.69;91.06
21096;BME280;10706;49.036;12.112;2023-04-20T04:19:07;97600.97;;;2.63;92.26
21096;BME280;10706;49.036;12.112;2023-04-20T04:21:33;97601.72;;;2.79;91.89
21096;BME280;10706;49.036;12.112;2023-04-20T04:23:59;97597.66;;;2.76;91.59
21096;BME280;10706;49.036;12.112;2023-04-20T04:26:25;97596.47;;;2.79;90.19
21096;BME280;10706;49.036;12.112;2023-04-20T04:28:51;97597.97;;;2.88;89.41
21096;BME280;10706;49.036;12.112;2023-04-20T04:31:17;97600.41;;;2.89;89.83
21096;BME280;10706;49.036;12.112;2023-04-20T04:33:46;97595.06;;;2.83;90.95
21096;BME280;10706;49.036;12.112;2023-04-20T04:36:12;97592.44;;;2.83;90.04
21096;BME280;10706;49.036;12.112;2023-04-20T04:38:42;97596.31;;;2.87;91.39
21096;BME280;10706;49.036;12.112;2023-04-20T04:41:11;97594.63;;;2.79;90.54
21096;BME280;10706;49.036;12.112;2023-04-20T04:43:38;97595.41;;;2.73;91.15
21096;BME280;10706;49.036;12.112;2023-04-20T04:46:06;97603.69;;;2.91;91.12
21096;BME280;10706;49.036;12.112;2023-04-20T04:48:36;97613.47;;;2.98;88.98
21096;BME280;10706;49.036;12.112;2023-04-20T04:51:03;97609.75;;;2.92;90.01
21096;BME280;10706;49.036;12.112;2023-04-20T04:53:29;97602.03;;;2.90;89.26
21096;BME280;10706;49.036;12.112;2023-04-20T04:55:55;97591.38;;;2.99;89.64
21096;BME280;10706;49.036;12.112;2023-04-20T04:58:21;97593.13;;;2.91;90.53
21096;BME280;10706;49.036;12.112;2023-04-20T05:00:47;97597.81;;;2.96;90.39
21096;BME280;10706;49.036;12.112;2023-04-20T05:03:14;97605.72;;;2.96;89.37
21096;BME280;10706;49.036;12.112;2023-04-20T05:05:41;97601.72;;;3.00;90.42
21096;BME280;10706;49.036;12.112;2023-04-20T05:08:06;97600.56;;;3.09;89.58
21096;BME280;10706;49.036;12.112;2023-04-20T05:10:32;97596.31;;;3.08;89.94
21096;BME280;10706;49.036;12.112;2023-04-20T05:12:58;97591.16;;;3.00;88.49
21096;BME280;10706;49.036;12.112;2023-04-20T05:15:25;97596.50;;;3.07;90.97
21096;BME280;10706;49.036;12.112;2023-04-20T05:17:51;97598.50;;;3.05;88.95
21096;BME280;10706;49.036;12.112;2023-04-20T05:20:17;97599.75;;;3.09;89.21
21096;BME280;10706;49.036;12.112;2023-04-20T05:22:43;97604.25;;;3.15;89.68
21096;BME280;10706;49.036;12.112;2023-04-20T05:25:09;97599.94;;;3.29;89.54
21096;BME280;10706;49.036;12.112;2023-04-20T05:27:36;97593.84;;;3.28;88.66
21096;BME280;10706;49.036;12.112;2023-04-20T05:30:02;97599.69;;;3.24;88.83
21096;BME280;10706;49.036;12.112;2023-04-20T05:32:28;97600.25;;;3.19;88.35
21096;BME280;10706;49.036;12.112;2023-04-20T05:34:54;97599.75;;;3.37;87.88
21096;BME280;10706;49.036;12.112;2023-04-20T05:37:20;97603.22;;;3.38;87.93
21096;BME280;10706;49.036;12.112;2023-04-20T05:39:46;97600.44;;;3.46;88.03
21096;BME280;10706;49.036;12.112;2023-04-20T05:42:12;97603.34;;;3.51;88.17
21096;BME280;10706;49.036;12.112;2023-04-20T05:44:38;97605.19;;;3.57;85.86
21096;BME280;10706;49.036;12.112;2023-04-20T05:47:05;97608.69;;;3.64;86.16
21096;BME280;10706;49.036;12.112;2023-04-20T05:49:33;97605.63;;;3.61;86.72
21096;BME280;10706;49.036;12.112;2023-04-20T05:51:59;97605.66;;;3.39;87.62
21096;BME280;10706;49.036;12.112;2023-04-20T05:54:26;97605.72;;;3.46;87.39
21096;BME280;10706;49.036;12.112;2023-04-20T05:56:55;97608.72;;;3.36;87.02
21096;BME280;10706;49.036;12.112;2023-04-20T05:59:25;97612.25;;;3.50;86.45
21096;BME280;10706;49.036;12.112;2023-04-20T06:01:51;97615.31;;;3.54;87.88
21096;BME280;10706;49.036;12.112;2023-04-20T06:04:17;97614.28;;;3.55;87.29
21096;BME280;10706;49.036;12.112;2023-04-20T06:06:43;97618.69;;;3.41;85.79
21096;BME280;10706;49.036;12.112;2023-04-20T06:09:08;97619.09;;;3.44;86.53
21096;BME280;10706;49.036;12.112;2023-04-20T06:11:35;97616.13;;;3.54;85.65
21096;BME280;10706;49.036;12.112;2023-04-20T06:14:01;97615.69;;;3.50;86.52
21096;BME280;10706;49.036;12.112;2023-04-20T06:16:27;97607.03;;;3.63;86.95
21096;BME280;10706;49.036;12.112;2023-04-20T06:18:53;97611.41;;;3.84;86.69
21096;BME280;10706;49.036;12.112;2023-04-20T06:21:19;97611.22;;;3.86;86.12
21096;BME280;10706;49.036;12.112;2023-04-20T06:23:45;97615.97;;;3.97;84.12
21096;BME280;10706;49.036;12.112;2023-04-20T06:26:11;97610.50;;;3.99;84.41
21096;BME280;10706;49.036;12.112;2023-04-20T06:28:37;97611.00;;;4.29;83.86
21096;BME280;10706;49.036;12.112;2023-04-20T06:31:03;97616.31;;;4.29;84.15
21096;BME280;10706;49.036;12.112;2023-04-20T06:33:29;97608.56;;;4.27;83.82
21096;BME280;10706;49.036;12.112;2023-04-20T06:35:55;97599.72;;;4.68;82.41
21096;BME280;10706;49.036;12.112;2023-04-20T06:38:24;97598.75;;;4.83;80.56
21096;BME280;10706;49.036;12.112;2023-04-20T06:40:51;97601.19;;;4.71;81.60
21096;BME280;10706;49.036;12.112;2023-04-20T06:43:16;97600.19;;;5.05;80.87
21096;BME280;10706;49.036;12.112;2023-04-20T06:45:42;97599.38;;;5.12;81.05
21096;BME280;10706;49.036;12.112;2023-04-20T06:48:08;97597.75;;;5.24;81.27
21096;BME280;10706;49.036;12.112;2023-04-20T06:50:34;97609.16;;;5.24;79.74
21096;BME280;10706;49.036;12.112;2023-04-20T06:53:02;97608.34;;;5.37;79.03
21096;BME280;10706;49.036;12.112;2023-04-20T06:55:28;97609.75;;;5.33;79.49
21096;BME280;10706;49.036;12.112;2023-04-20T06:57:54;97603.44;;;5.41;79.56
21096;BME280;10706;49.036;12.112;2023-04-20T07:00:20;97604.22;;;5.55;79.39
21096;BME280;10706;49.036;12.112;2023-04-20T07:02:50;97599.91;;;5.80;78.17
21096;BME280;10706;49.036;12.112;2023-04-20T07:05:17;97609.66;;;5.80;77.34
21096;BME280;10706;49.036;12.112;2023-04-20T07:07:43;97603.19;;;5.62;78.78
21096;BME280;10706;49.036;12.112;2023-04-20T07:10:12;97608.69;;;5.61;77.45
21096;BME280;10706;49.036;12.112;2023-04-20T07:12:39;97606.28;;;5.59;78.52
21096;BME280;10706;49.036;12.112;2023-04-20T07:15:07;97603.38;;;5.81;77.02
21096;BME280;10706;49.036;12.112;2023-04-20T07:17:34;97597.44;;;5.85;77.95
21096;BME280;10706;49.036;12.112;2023-04-20T07:20:00;97592.53;;;6.48;77.71
21096;BME280;10706;49.036;12.112;2023-04-20T07:22:37;97589.28;;;6.77;74.88
21096;BME280;10706;49.036;12.112;2023-04-20T07:25:06;97588.16;;;6.92;73.18
21096;BME280;10706;49.036;12.112;2023-04-20T07:27:37;97592.81;;;6.33;73.73
21096;BME280;10706;49.036;12.112;2023-04-20T07:30:05;97590.09;;;6.46;74.05
21096;BME280;10706;49.036;12.112;2023-04-20T07:32:32;97581.94;;;6.02;74.63
21096;BME280;10706;49.036;12.112;2023-04-20T07:34:58;97581.63;;;6.24;75.12
21096;BME280;10706;49.036;12.112;2023-04-20T07:37:25;97592.03;;;6.26;74.88
21096;BME280;10706;49.036;12.112;2023-04-20T07:39:51;97587.78;;;6.18;74.74
21096;BME280;10706;49.036;12.112;2023-04-20T07:42:19;97596.41;;;6.45;74.19
21096;BME280;10706;49.036;12.112;2023-04-20T07:44:45;97592.25;;;6.63;72.77
21096;BME280;10706;49.036;12.112;2023-04-20T07:47:10;97584.41;;;6.74;72.59
21096;BME280;10706;49.036;12.112;2023-04-20T07:49:36;97590.03;;;6.59;73.76
21096;BME280;10706;49.036;12.112;2023-04-20T07:52:03;97583.63;;;6.74;72.58
21096;BME280;10706;49.036;12.112;2023-04-20T07:54:29;97578.53;;;6.66;70.25
21096;BME280;10706;49.036;12.112;2023-04-20T07:56:55;97590.63;;;6.61;71.72
21096;BME280;10706;49.036;12.112;2023-04-20T07:59:20;97590.81;;;6.67;73.31
21096;BME280;10706;49.036;12.112;2023-04-20T08:01:46;97593.09;;;6.56;72.98
21096;BME280;10706;49.036;12.112;2023-04-20T08:04:12;97591.47;;;6.87;71.77
21096;BME280;10706;49.036;12.112;2023-04-20T08:06:38;97583.13;;;6.52;73.21
21096;BME280;10706;49.036;12.112;2023-04-20T08:09:03;97587.28;;;6.34;72.99
21096;BME280;10706;49.036;12.112;2023-04-20T08:11:29;97584.41;;;6.42;73.34
21096;BME280;10706;49.036;12.112;2023-04-20T08:13:55;97580.03;;;6.16;73.39
21096;BME280;10706;49.036;12.112;2023-04-20T08:16:21;97581.25;;;6.20;73.71
21096;BME280;10706;49.036;12.112;2023-04-20T08:18:47;97583.69;;;6.22;74.36
21096;BME280;10706;49.036;12.112;2023-04-20T08:21:13;97580.81;;;6.23;73.64
21096;BME280;10706;49.036;12.112;2023-04-20T08:23:39;97592.53;;;6.02;74.56
21096;BME280;10706;49.036;12.112;2023-04-20T08:26:05;97587.06;;;5.77;75.87
21096;BME280;10706;49.036;12.112;2023-04-20T08:28:31;97582.81;;;5.70;77.85
21096;BME280;10706;49.036;12.112;2023-04-20T08:30:57;97584.00;;;5.80;75.59
21096;BME280;10706;49.036;12.112;2023-04-20T08:33:22;97575.25;;;5.73;76.86
21096;BME280;10706;49.036;12.112;2023-04-20T08:35:51;97581.75;;;5.84;77.07
21096;BME280;10706;49.036;12.112;2023-04-20T08:38:17;97574.59;;;5.98;75.72
21096;BME280;10706;49.036;12.112;2023-04-20T08:40:43;97576.44;;;6.42;73.45
21096;BME280;10706;49.036;12.112;2023-04-20T08:43:09;97577.31;;;6.30;72.90
21096;BME280;10706;49.036;12.112;2023-04-20T08:45:36;97574.78;;;6.03;75.48
21096;BME280;10706;49.036;12.112;2023-04-20T08:48:09;97567.97;;;6.27;74.38
21096;BME280;10706;49.036;12.112;2023-04-20T08:50:39;97569.06;;;5.93;76.79
21096;BME280;10706;49.036;12.112;2023-04-20T08:53:05;97570.09;;;5.98;75.96
21096;BME280;10706;49.036;12.112;2023-04-20T08:55:32;97561.06;;;6.19;75.29
21096;BME280;10706;49.036;12.112;2023-04-20T08:57:57;97562.94;;;6.12;74.93
21096;BME280;10706;49.036;12.112;2023-04-20T09:00:23;97565.31;;;6.27;75.62
21096;BME280;10706;49.036;12.112;2023-04-20T09:02:51;97557.19;;;6.54;74.56
21096;BME280;10706;49.036;12.112;2023-04-20T09:05:28;97555.41;;;6.48;74.70
21096;BME280;10706;49.036;12.112;2023-04-20T09:07:56;97563.41;;;6.73;75.30
21096;BME280;10706;49.036;12.112;2023-04-20T09:10:23;97568.16;;;7.21;71.57
21096;BME280;10706;49.036;12.112;2023-04-20T09:12:49;97559.09;;;7.04;73.85
21096;BME280;10706;49.036;12.112;2023-04-20T09:15:30;97566.03;;;6.79;72.44
21096;BME280;10706;49.036;12.112;2023-04-20T09:17:57;97569.91;;;6.77;72.31
21096;BME280;10706;49.036;12.112;2023-04-20T09:20:31;97567.84;;;6.79;72.43
21096;BME280;10706;49.036;12.112;2023-04-20T09:22:57;97570.53;;;6.40;74.01
21096;BME280;10706;49.036;12.112;2023-04-20T09:25:35;97572.41;;;6.33;75.74
21096;BME280;10706;49.036;12.112;2023-04-20T09:28:01;97569.16;;;6.31;76.05
21096;BME280;10706;49.036;12.112;2023-04-20T09:30:47;97561.16;;;6.38;74.75
21096;BME280;10706;49.036;12.112;2023-04-20T09:33:15;97563.41;;;6.41;75.67
21096;BME280;10706;49.036;12.112;2023-04-20T09:35:44;97564.41;;;6.40;75.40
21096;BME280;10706;49.036;12.112;2023-04-20T09:38:14;97563.53;;;6.53;75.07
21096;BME280;10706;49.036;12.112;2023-04-20T09:40:41;97554.16;;;6.50;75.54
21096;BME280;10706;49.036;12.112;2023-04-20T09:43:27;97550.94;;;6.73;75.50
21096;BME280;10706;49.036;12.112;2023-04-20T09:45:54;97545.50;;;6.93;74.85
21096;BME280;10706;49.036;12.112;2023-04-20T09:48:21;97540.78;;;6.70;74.41
21096;BME280;10706;49.036;12.112;2023-04-20T09:50:48;97548.06;;;7.00;73.21
21096;BME280;10706;49.036;12.112;2023-04-20T09:53:17;97544.03;;;6.97;73.99
21096;BME280;10706;49.036;12.112;2023-04-20T09:55:48;97541.34;;;7.04;73.16
21096;BME280;10706;49.036;12.112;2023-04-20T09:58:17;97539.41;;;7.36;72.21
21096;BME280;10706;49.036;12.112;2023-04-20T10:00:45;97539.63;;;7.35;72.46
21096;BME280;10706;49.036;12.112;2023-04-20T10:03:14;97550.91;;;7.49;71.14
21096;BME280;10706;49.036;12.112;2023-04-20T10:05:40;97547.78;;;7.58;72.12
21096;BME280;10706;49.036;12.112;2023-04-20T10:08:07;97550.31;;;7.47;73.08
21096;BME280;10706;49.036;12.112;2023-04-20T10:11:02;97549.59;;;7.58;71.41
21096;BME280;10706;49.036;12.112;2023-04-20T10:13:32;97548.06;;;7.69;71.48
21096;BME280;10706;49.036;12.112;2023-04-20T10:15:58;97541.03;;;7.93;70.25
21096;BME280;10706;49.036;12.112;2023-04-20T10:18:24;97542.38;;;8.02;71.00
21096;BME280;10706;49.036;12.112;2023-04-20T10:20:51;97547.72;;;8.14;69.15
21096;BME280;10706;49.036;12.112;2023-04-20T10:23:28;97532.72;;;8.20;69.57
21096;BME280;10706;49.036;12.112;2023-04-20T10:25:58;97535.78;;;8.35;68.99
21096;BME280;10706;49.036;12.112;2023-04-20T10:28:36;97521.50;;;8.17;69.81
21096;BME280;10706;49.036;12.112;2023-04-20T10:31:06;97515.28;;;8.24;67.90
21096;BME280;10706;49.036;12.112;2023-04-20T10:33:32;97510.91;;;7.99;69.59
21096;BME280;10706;49.036;12.112;2023-04-20T10:35:58;97509.56;;;7.90;70.82
21096;BME280;10706;49.036;12.112;2023-04-20T10:38:34;97514.69;;;8.22;71.27
21096;BME280;10706;49.036;12.112;2023-04-20T10:41:06;97505.88;;;8.09;70.06
21096;BME280;10706;49.036;12.112;2023-04-20T10:43:32;97504.88;;;8.22;69.05
21096;BME280;10706;49.036;12.112;2023-04-20T10:45:59;97497.50;;;8.24;69.90
21096;BME280;10706;49.036;12.112;2023-04-20T10:48:25;97488.81;;;8.29;69.84
21096;BME280;10706;49.036;12.112;2023-04-20T10:50:51;97496.28;;;8.20;71.62
21096;BME280;10706;49.036;12.112;2023-04-20T10:53:22;97496.00;;;8.70;68.21
21096;BME280;10706;49.036;12.112;2023-04-20T10:56:00;97481.69;;;8.83;68.26
21096;BME280;10706;49.036;12.112;2023-04-20T10:58:26;97473.25;;;8.98;66.80
21096;BME280;10706;49.036;12.112;2023-04-20T11:00:59;97471.38;;;9.34;66.35
21096;BME280;10706;49.036;12.112;2023-04-20T11:03:31;97463.66;;;9.73;65.50
21096;BME280;10706;49.036;12.112;2023-04-20T11:05:57;97463.25;;;9.81;65.90
21096;BME280;10706;49.036;12.112;2023-04-20T11:08:41;97455.09;;;10.00;63.79
21096;BME280;10706;49.036;12.112;2023-04-20T11:11:23;97456.09;;;9.82;65.61
21096;BME280;10706;49.036;12.112;2023-04-20T11:14:16;97456.09;;;10.73;64.63
21096;BME280;10706;49.036;12.112;2023-04-20T11:16:51;97446.97;;;10.69;61.50
21096;BME280;10706;49.036;12.112;2023-04-20T11:21:55;97431.53;;;11.49;57.58
21096;BME280;10706;49.036;12.112;2023-04-20T11:24:29;97431.72;;;11.64;61.29
21096;BME280;10706;49.036;12.112;2023-04-20T11:27:04;97430.09;;;11.41;60.65
21096;BME280;10706;49.036;12.112;2023-04-20T11:30:01;97425.72;;;12.29;58.22
21096;BME280;10706;49.036;12.112;2023-04-20T11:32:54;97424.88;;;11.96;57.96
21096;BME280;10706;49.036;12.112;2023-04-20T11:35:20;97427.28;;;11.97;57.28
21096;BME280;10706;49.036;12.112;2023-04-20T11:37:48;97422.63;;;12.74;56.34
21096;BME280;10706;49.036;12.112;2023-04-20T11:40:15;97413.72;;;13.06;55.99
21096;BME280;10706;49.036;12.112;2023-04-20T11:42:42;97416.00;;;13.30;55.90
21096;BME280;10706;49.036;12.112;2023-04-20T11:45:09;97410.84;;;13.71;56.03
21096;BME280;10706;49.036;12.112;2023-04-20T11:47:36;97410.59;;;13.83;55.12
21096;BME280;10706;49.036;12.112;2023-04-20T11:50:09;97405.56;;;13.96;55.04
21096;BME280;10706;49.036;12.112;2023-04-20T11:52:36;97406.38;;;14.23;55.92
21096;BME280;10706;49.036;12.112;2023-04-20T11:55:01;97400.22;;;14.22;54.07
21096;BME280;10706;49.036;12.112;2023-04-20T11:57:28;97394.31;;;14.25;53.73
21096;BME280;10706;49.036;12.112;2023-04-20T11:59:53;97390.22;;;13.82;54.10
21096;BME280;10706;49.036;12.112;2023-04-20T12:02:23;97400.00;;;14.70;52.38
21096;BME280;10706;49.036;12.112;2023-04-20T12:04:58;97391.84;;;13.88;55.25
21096;BME280;10706;49.036;12.112;2023-04-20T12:07:27;97388.94;;;14.25;52.28
21096;BME280;10706;49.036;12.112;2023-04-20T12:09:56;97383.81;;;14.08;52.32
21096;BME280;10706;49.036;12.112;2023-04-20T12:12:22;97381.41;;;14.07;55.63
21096;BME280;10706;49.036;12.112;2023-04-20T12:14:48;97375.53;;;14.76;51.87
21096;BME280;10706;49.036;12.112;2023-04-20T12:17:14;97384.28;;;15.18;51.59
21096;BME280;10706;49.036;12.112;2023-04-20T12:19:40;97378.16;;;15.02;48.88
21096;BME280;10706;49.036;12.112;2023-04-20T12:22:06;97366.69;;;15.57;48.44
21096;BME280;10706;49.036;12.112;2023-04-20T12:24:31;97367.72;;;16.50;47.31
21096;BME280;10706;49.036;12.112;2023-04-20T12:27:00;97356.59;;;16.27;46.64
21096;BME280;10706;49.036;12.112;2023-04-20T12:29:26;97363.72;;;14.72;49.64
21096;BME280;10706;49.036;12.112;2023-04-20T12:31:52;97345.94;;;13.99;51.05
21096;BME280;10706;49.036;12.112;2023-04-20T12:34:17;97352.94;;;13.95;51.70
21096;BME280;10706;49.036;12.112;2023-04-20T12:36:43;97353.22;;;14.50;50.68
21096;BME280;10706;49.036;12.112;2023-04-20T12:39:09;97350.09;;;15.34;50.30
21096;BME280;10706;49.036;12.112;2023-04-20T12:41:36;97350.25;;;14.77;49.27
21096;BME280;10706;49.036;12.112;2023-04-20T12:44:02;97351.34;;;14.71;50.83
21096;BME280;10706;49.036;12.112;2023-04-20T12:46:27;97347.84;;;14.19;52.69
21096;BME280;10706;49.036;12.112;2023-04-20T12:48:53;97344.84;;;14.83;51.76
21096;BME280;10706;49.036;12.112;2023-04-20T12:51:19;97346.78;;;14.56;51.24
21096;BME280;10706;49.036;12.112;2023-04-20T12:53:45;97336.38;;;15.35;50.35
21096;BME280;10706;49.036;12.112;2023-04-20T12:56:11;97330.06;;;16.05;48.98
21096;BME280;10706;49.036;12.112;2023-04-20T12:58:36;97337.88;;;16.41;48.12
21096;BME280;10706;49.036;12.112;2023-04-20T13:01:02;97334.19;;;16.90;45.74